createdAt,value
2019-03-08T00:00:29.289Z,1.35
2019-03-08T00:01:08.143Z,0.98
2019-03-08T00:01:45.885Z,0.85
2019-03-08T00:02:23.497Z,1.10
2019-03-08T00:03:00.865Z,1.10
2019-03-08T00:03:38.263Z,1.30
2019-03-08T00:04:15.924Z,1.27
2019-03-08T00:04:53.309Z,1.00
2019-03-08T00:05:30.867Z,1.02
2019-03-08T00:06:08.641Z,1.30
2019-03-08T00:06:46.464Z,1.00
2019-03-08T00:07:23.655Z,1.15
2019-03-08T00:08:01.950Z,1.17
2019-03-08T00:08:39.431Z,1.20
2019-03-08T00:09:17.116Z,1.10
2019-03-08T00:09:53.983Z,1.40
2019-03-08T00:10:31.971Z,1.15
2019-03-08T00:11:10.089Z,1.20
2019-03-08T00:11:48.033Z,1.10
2019-03-08T00:12:25.819Z,1.10
2019-03-08T00:13:05.362Z,1.10
2019-03-08T00:13:43.773Z,1.20
2019-03-08T00:14:21.631Z,1.20
2019-03-08T00:14:59.735Z,1.60
2019-03-08T00:15:37.559Z,1.27
2019-03-08T00:16:15.322Z,1.40
2019-03-08T00:16:53.099Z,1.12
2019-03-08T00:17:31.027Z,1.80
2019-03-08T00:18:08.325Z,1.70
2019-03-08T00:18:45.909Z,1.55
2019-03-08T00:19:23.477Z,2.00
2019-03-08T00:20:01.315Z,1.90
2019-03-08T00:20:39.564Z,1.57
2019-03-08T00:21:36.427Z,1.42
2019-03-08T00:22:13.931Z,1.70
2019-03-08T00:22:52.018Z,1.60
2019-03-08T00:23:29.141Z,1.45
2019-03-08T00:24:07.251Z,1.55
2019-03-08T00:24:44.921Z,1.55
2019-03-08T00:25:22.457Z,1.70
2019-03-08T00:26:00.445Z,1.70
2019-03-08T00:26:38.409Z,1.40
2019-03-08T00:27:16.281Z,1.62
2019-03-08T00:27:53.445Z,1.52
2019-03-08T00:28:31.468Z,1.65
2019-03-08T00:29:09.562Z,1.40
2019-03-08T00:29:47.309Z,1.50
2019-03-08T00:30:24.731Z,1.65
2019-03-08T00:31:02.963Z,1.65
2019-03-08T00:31:40.915Z,1.77
2019-03-08T00:32:18.635Z,1.35
2019-03-08T00:32:56.673Z,1.52
2019-03-08T00:33:34.434Z,1.65
2019-03-08T00:34:12.553Z,1.35
2019-03-08T00:34:49.295Z,1.50
2019-03-08T00:35:27.424Z,1.80
2019-03-08T00:36:05.039Z,1.60
2019-03-08T00:36:42.983Z,1.60
2019-03-08T00:37:20.476Z,1.40
2019-03-08T00:37:57.751Z,1.57
2019-03-08T00:38:35.837Z,1.47
2019-03-08T00:39:32.835Z,1.70
2019-03-08T00:40:11.075Z,1.40
2019-03-08T00:40:49.157Z,1.40
2019-03-08T00:41:26.913Z,1.70
2019-03-08T00:42:04.383Z,1.85
2019-03-08T00:42:41.972Z,1.40
2019-03-08T00:43:19.786Z,1.52
2019-03-08T00:43:58.113Z,1.40
2019-03-08T00:44:36.225Z,1.20
2019-03-08T00:45:14.064Z,1.70
2019-03-08T00:45:52.185Z,1.45
2019-03-08T00:46:30.473Z,1.60
2019-03-08T00:47:07.901Z,1.30
2019-03-08T00:47:45.617Z,1.32
2019-03-08T00:48:23.065Z,1.80
2019-03-08T00:49:00.553Z,1.37
2019-03-08T00:49:38.577Z,1.37
2019-03-08T00:50:16.107Z,1.12
2019-03-08T00:50:54.155Z,1.32
2019-03-08T00:51:31.785Z,1.50
2019-03-08T00:52:09.519Z,1.15
2019-03-08T00:52:47.228Z,1.40
2019-03-08T00:53:24.639Z,1.32
2019-03-08T00:54:02.350Z,1.15
2019-03-08T00:54:39.910Z,1.25
2019-03-08T00:55:17.477Z,1.17
2019-03-08T00:55:55.475Z,1.27
2019-03-08T00:56:33.506Z,1.45
2019-03-08T00:57:11.447Z,1.50
2019-03-08T00:57:49.489Z,1.55
2019-03-08T00:58:27.310Z,1.55
2019-03-08T00:59:05.218Z,1.20
2019-03-08T00:59:43.217Z,1.50
2019-03-08T01:00:21.073Z,1.30
2019-03-08T01:00:59.285Z,1.40
2019-03-08T01:01:36.871Z,1.32
2019-03-08T01:02:14.932Z,1.10
2019-03-08T01:02:53.485Z,1.25
2019-03-08T01:03:31.356Z,1.50
2019-03-08T01:04:09.507Z,1.30
2019-03-08T01:04:47.288Z,1.45
2019-03-08T01:05:43.797Z,1.40
2019-03-08T01:06:21.745Z,1.30
2019-03-08T01:06:58.877Z,1.62
2019-03-08T01:07:36.816Z,1.47
2019-03-08T01:08:14.403Z,1.15
2019-03-08T01:08:51.983Z,1.42
2019-03-08T01:09:29.878Z,1.30
2019-03-08T01:10:09.693Z,1.57
2019-03-08T01:10:47.527Z,1.45
2019-03-08T01:11:25.824Z,1.45
2019-03-08T01:12:03.467Z,1.22
2019-03-08T01:12:41.325Z,1.30
2019-03-08T01:13:19.251Z,1.60
2019-03-08T01:13:56.953Z,1.20
2019-03-08T01:14:34.407Z,1.72
2019-03-08T01:15:13.471Z,1.45
2019-03-08T01:15:51.559Z,1.37
2019-03-08T01:16:29.589Z,1.60
2019-03-08T01:17:07.441Z,1.52
2019-03-08T01:17:45.595Z,1.90
2019-03-08T01:18:23.164Z,1.35
2019-03-08T01:19:00.635Z,2.12
2019-03-08T01:19:38.626Z,1.80
2019-03-08T01:20:16.475Z,1.20
2019-03-08T01:20:54.135Z,1.40
2019-03-08T01:21:32.375Z,1.30
2019-03-08T01:22:10.116Z,1.12
2019-03-08T01:22:48.053Z,1.20
2019-03-08T01:23:25.259Z,2.25
2019-03-08T01:24:03.138Z,1.40
2019-03-08T01:24:40.919Z,1.65
2019-03-08T01:25:18.671Z,1.50
2019-03-08T01:25:56.187Z,1.35
2019-03-08T01:26:33.972Z,1.50
2019-03-08T01:27:11.144Z,0.95
2019-03-08T01:28:02.139Z,1.10
2019-03-08T01:28:40.024Z,1.20
2019-03-08T01:29:17.622Z,1.40
2019-03-08T01:29:55.190Z,1.55
2019-03-08T01:30:32.410Z,1.30
2019-03-08T01:31:10.501Z,1.40
2019-03-08T01:31:47.988Z,1.05
2019-03-08T01:32:26.223Z,1.45
2019-03-08T01:33:04.299Z,1.20
2019-03-08T01:33:42.217Z,1.70
2019-03-08T01:34:19.751Z,1.50
2019-03-08T01:34:57.863Z,1.40
2019-03-08T01:35:35.808Z,1.20
2019-03-08T01:36:13.904Z,1.42
2019-03-08T01:36:52.151Z,1.50
2019-03-08T01:37:30.141Z,1.22
2019-03-08T01:38:08.356Z,1.22
2019-03-08T01:38:46.176Z,1.52
2019-03-08T01:39:23.975Z,1.40
2019-03-08T01:40:01.701Z,1.60
2019-03-08T01:40:39.728Z,1.80
2019-03-08T01:41:16.967Z,1.77
2019-03-08T01:41:57.323Z,1.45
2019-03-08T01:42:35.465Z,1.15
2019-03-08T01:43:13.569Z,1.20
2019-03-08T01:43:51.743Z,1.70
2019-03-08T01:44:29.542Z,1.32
2019-03-08T01:45:07.830Z,2.17
2019-03-08T01:45:45.668Z,1.20
2019-03-08T01:46:23.790Z,1.20
2019-03-08T01:47:01.239Z,1.42
2019-03-08T01:47:39.127Z,1.15
2019-03-08T01:48:16.653Z,1.20
2019-03-08T01:48:54.288Z,1.35
2019-03-08T01:49:32.076Z,1.10
2019-03-08T01:50:10.158Z,1.30
2019-03-08T01:50:47.801Z,1.20
2019-03-08T01:51:25.387Z,1.07
2019-03-08T01:52:02.787Z,1.00
2019-03-08T01:52:41.941Z,1.47
2019-03-08T01:53:19.637Z,1.25
2019-03-08T01:53:57.335Z,1.20
2019-03-08T01:54:35.313Z,1.47
2019-03-08T01:55:13.507Z,1.62
2019-03-08T01:55:51.372Z,1.52
2019-03-08T01:56:29.575Z,1.42
2019-03-08T01:57:07.327Z,1.20
2019-03-08T01:57:45.597Z,1.30
2019-03-08T01:58:23.137Z,1.30
2019-03-08T01:59:00.615Z,1.30
2019-03-08T01:59:38.639Z,1.25
2019-03-08T02:00:17.912Z,1.40
2019-03-08T02:00:55.755Z,1.65
2019-03-08T02:01:33.211Z,1.30
2019-03-08T02:02:10.766Z,1.30
2019-03-08T02:02:48.995Z,1.40
2019-03-08T02:03:26.966Z,1.00
2019-03-08T02:04:04.070Z,1.60
2019-03-08T02:04:41.728Z,1.25
2019-03-08T02:05:20.076Z,1.30
2019-03-08T02:05:57.935Z,1.12
2019-03-08T02:06:35.180Z,1.20
2019-03-08T02:07:12.739Z,1.20
2019-03-08T02:07:50.695Z,1.22
2019-03-08T02:08:28.650Z,1.20
2019-03-08T02:09:07.531Z,0.90
2019-03-08T02:09:45.504Z,1.05
2019-03-08T02:10:23.005Z,1.40
2019-03-08T02:11:00.096Z,1.27
2019-03-08T02:11:37.860Z,1.20
2019-03-08T02:12:15.966Z,1.25
2019-03-08T02:12:53.449Z,1.20
2019-03-08T02:13:30.546Z,1.20
2019-03-08T02:14:08.196Z,1.30
2019-03-08T02:14:45.674Z,1.35
2019-03-08T02:15:23.454Z,1.15
2019-03-08T02:16:01.702Z,1.10
2019-03-08T02:16:39.660Z,1.67
2019-03-08T02:17:17.012Z,1.02
2019-03-08T02:17:54.809Z,1.10
2019-03-08T02:18:32.608Z,1.40
2019-03-08T02:19:10.276Z,1.20
2019-03-08T02:19:47.847Z,1.10
2019-03-08T02:20:25.816Z,1.60
2019-03-08T02:21:09.359Z,1.15
2019-03-08T02:21:47.404Z,1.50
2019-03-08T02:22:24.524Z,1.75
2019-03-08T02:23:02.616Z,1.80
2019-03-08T02:23:40.336Z,1.50
2019-03-08T02:24:18.126Z,1.20
2019-03-08T02:24:55.880Z,1.27
2019-03-08T02:25:33.899Z,1.40
2019-03-08T02:26:11.064Z,1.57
2019-03-08T02:26:48.925Z,1.37
2019-03-08T02:27:26.818Z,1.40
2019-03-08T02:28:04.695Z,1.22
2019-03-08T02:28:42.201Z,1.20
2019-03-08T02:29:19.966Z,1.30
2019-03-08T02:29:57.654Z,1.27
2019-03-08T02:30:35.168Z,1.47
2019-03-08T02:31:13.344Z,1.32
2019-03-08T02:31:51.293Z,1.20
2019-03-08T02:32:29.366Z,1.67
2019-03-08T02:33:07.567Z,1.65
2019-03-08T02:33:45.609Z,1.00
2019-03-08T02:34:23.564Z,1.25
2019-03-08T02:35:00.975Z,1.60
2019-03-08T02:35:38.336Z,1.40
2019-03-08T02:36:16.326Z,0.93
2019-03-08T02:36:54.026Z,1.30
2019-03-08T02:37:31.424Z,1.30
2019-03-08T02:38:09.625Z,1.10
2019-03-08T02:38:47.166Z,1.10
2019-03-08T02:39:24.643Z,1.20
2019-03-08T02:40:02.700Z,1.32
2019-03-08T02:40:40.539Z,1.32
2019-03-08T02:41:18.236Z,1.20
2019-03-08T02:41:55.786Z,1.15
2019-03-08T02:42:33.813Z,1.50
2019-03-08T02:43:16.081Z,1.30
2019-03-08T02:43:54.056Z,1.45
2019-03-08T02:44:32.132Z,0.90
2019-03-08T02:45:10.021Z,1.40
2019-03-08T02:45:48.372Z,1.05
2019-03-08T02:46:25.931Z,0.90
2019-03-08T02:47:04.026Z,1.15
2019-03-08T02:47:41.818Z,1.10
2019-03-08T02:48:19.394Z,1.25
2019-03-08T02:48:57.352Z,1.20
2019-03-08T02:49:35.256Z,1.17
2019-03-08T02:50:12.732Z,1.42
2019-03-08T02:50:50.111Z,1.25
2019-03-08T02:51:27.390Z,1.20
2019-03-08T02:52:05.279Z,1.15
2019-03-08T02:52:42.756Z,1.20
2019-03-08T02:53:20.534Z,1.05
2019-03-08T02:53:58.548Z,1.10
2019-03-08T02:54:36.312Z,1.10
2019-03-08T02:55:14.002Z,1.20
2019-03-08T02:55:51.493Z,1.10
2019-03-08T02:56:29.381Z,1.42
2019-03-08T02:57:07.475Z,1.40
2019-03-08T02:57:44.624Z,1.32
2019-03-08T02:58:22.353Z,1.20
2019-03-08T02:58:59.908Z,1.20
2019-03-08T02:59:37.694Z,1.00
2019-03-08T03:00:16.303Z,1.10
2019-03-08T03:00:54.105Z,1.02
2019-03-08T03:01:32.094Z,1.20
2019-03-08T03:02:09.945Z,1.40
2019-03-08T03:02:48.160Z,1.20
2019-03-08T03:03:26.200Z,1.20
2019-03-08T03:04:03.547Z,1.20
2019-03-08T03:04:40.935Z,1.10
2019-03-08T03:05:18.728Z,0.90
2019-03-08T03:05:56.255Z,1.00
2019-03-08T03:06:33.390Z,1.27
2019-03-08T03:07:10.842Z,1.20
2019-03-08T03:07:48.946Z,1.30
2019-03-08T03:08:26.907Z,1.07
2019-03-08T03:09:05.556Z,1.25
2019-03-08T03:09:42.982Z,1.20
2019-03-08T03:10:20.913Z,1.22
2019-03-08T03:10:58.274Z,1.37
2019-03-08T03:11:35.961Z,1.15
2019-03-08T03:12:13.687Z,1.20
2019-03-08T03:12:51.428Z,1.12
2019-03-08T03:13:29.344Z,1.20
2019-03-08T03:14:07.309Z,1.25
2019-03-08T03:14:45.296Z,1.12
2019-03-08T03:15:23.350Z,1.12
2019-03-08T03:16:01.148Z,0.98
2019-03-08T03:16:38.862Z,1.30
2019-03-08T03:17:16.240Z,1.32
2019-03-08T03:17:53.995Z,1.35
2019-03-08T03:18:31.990Z,0.93
2019-03-08T03:19:09.417Z,1.02
2019-03-08T03:19:47.476Z,1.07
2019-03-08T03:20:25.284Z,1.10
2019-03-08T03:21:03.031Z,1.10
2019-03-08T03:21:40.430Z,1.20
2019-03-08T03:22:17.880Z,1.20
2019-03-08T03:22:55.646Z,1.25
2019-03-08T03:23:33.668Z,1.12
2019-03-08T03:24:11.740Z,1.17
2019-03-08T03:24:48.921Z,1.20
2019-03-08T03:25:27.106Z,1.27
2019-03-08T03:26:04.924Z,0.88
2019-03-08T03:26:42.287Z,1.10
2019-03-08T03:27:19.756Z,1.10
2019-03-08T03:27:57.748Z,1.00
2019-03-08T03:28:34.829Z,1.17
2019-03-08T03:29:12.296Z,1.22
2019-03-08T03:29:49.572Z,1.40
2019-03-08T03:30:27.739Z,1.20
2019-03-08T03:31:04.577Z,1.10
2019-03-08T03:31:41.597Z,1.45
2019-03-08T03:32:19.315Z,1.02
2019-03-08T03:32:57.284Z,1.25
2019-03-08T03:33:34.674Z,1.20
2019-03-08T03:34:12.360Z,1.20
2019-03-08T03:34:50.132Z,1.70
2019-03-08T03:35:27.908Z,1.30
2019-03-08T03:36:05.617Z,1.35
2019-03-08T03:36:43.360Z,1.17
2019-03-08T03:37:21.474Z,1.10
2019-03-08T03:37:59.558Z,1.30
2019-03-08T03:38:37.501Z,1.10
2019-03-08T03:39:15.476Z,1.07
2019-03-08T03:39:53.552Z,1.10
2019-03-08T03:40:31.850Z,1.12
2019-03-08T03:41:09.306Z,1.20
2019-03-08T03:41:46.699Z,1.10
2019-03-08T03:42:24.493Z,1.20
2019-03-08T03:43:02.256Z,1.70
2019-03-08T03:43:39.672Z,1.20
2019-03-08T03:44:17.380Z,1.40
2019-03-08T03:44:54.488Z,1.40
2019-03-08T03:45:31.580Z,1.00
2019-03-08T03:46:09.338Z,1.20
2019-03-08T03:46:46.745Z,1.10
2019-03-08T03:47:24.090Z,1.15
2019-03-08T03:48:01.160Z,1.00
2019-03-08T03:48:39.200Z,1.22
2019-03-08T03:49:17.155Z,1.15
2019-03-08T03:49:54.640Z,1.47
2019-03-08T03:50:32.062Z,1.25
2019-03-08T03:51:10.114Z,1.25
2019-03-08T03:51:47.576Z,1.10
2019-03-08T03:52:25.585Z,1.10
2019-03-08T03:53:03.343Z,1.62
2019-03-08T03:53:41.072Z,1.40
2019-03-08T03:54:18.626Z,1.22
2019-03-08T03:54:56.860Z,1.17
2019-03-08T03:55:34.081Z,1.17
2019-03-08T03:56:11.780Z,1.30
2019-03-08T03:56:49.730Z,1.05
2019-03-08T03:57:27.661Z,1.47
2019-03-08T03:58:05.370Z,1.17
2019-03-08T03:58:43.134Z,1.00
2019-03-08T03:59:20.592Z,1.27
2019-03-08T03:59:58.504Z,1.47
2019-03-08T04:00:36.363Z,1.30
2019-03-08T04:01:31.781Z,1.30
2019-03-08T04:02:09.464Z,1.30
2019-03-08T04:02:47.510Z,1.20
2019-03-08T04:03:25.502Z,1.50
2019-03-08T04:04:03.218Z,1.25
2019-03-08T04:04:40.799Z,1.10
2019-03-08T04:05:18.933Z,1.27
2019-03-08T04:05:56.676Z,1.60
2019-03-08T04:06:34.804Z,1.10
2019-03-08T04:07:13.724Z,1.12
2019-03-08T04:07:51.448Z,1.20
2019-03-08T04:08:28.912Z,1.17
2019-03-08T04:09:12.293Z,1.47
2019-03-08T04:09:50.092Z,1.52
2019-03-08T04:10:28.161Z,1.00
2019-03-08T04:11:05.906Z,1.25
2019-03-08T04:11:42.913Z,1.20
2019-03-08T04:12:20.484Z,1.30
2019-03-08T04:12:58.508Z,1.40
2019-03-08T04:13:35.989Z,1.70
2019-03-08T04:14:13.913Z,1.00
2019-03-08T04:14:51.545Z,1.40
2019-03-08T04:15:30.962Z,1.32
2019-03-08T04:16:09.148Z,1.00
2019-03-08T04:16:46.836Z,1.15
2019-03-08T04:17:24.308Z,1.30
2019-03-08T04:18:02.090Z,1.72
2019-03-08T04:18:40.101Z,1.65
2019-03-08T04:19:17.481Z,1.05
2019-03-08T04:19:55.460Z,1.50
2019-03-08T04:20:33.402Z,1.22
2019-03-08T04:21:11.544Z,1.40
2019-03-08T04:21:49.006Z,1.25
2019-03-08T04:22:26.754Z,1.20
2019-03-08T04:23:04.412Z,1.30
2019-03-08T04:23:42.184Z,1.72
2019-03-08T04:24:20.122Z,1.17
2019-03-08T04:24:58.152Z,1.47
2019-03-08T04:25:35.931Z,1.10
2019-03-08T04:26:14.076Z,1.40
2019-03-08T04:26:51.420Z,1.25
2019-03-08T04:27:28.975Z,1.42
2019-03-08T04:28:06.424Z,1.55
2019-03-08T04:28:43.829Z,1.75
2019-03-08T04:29:21.684Z,1.40
2019-03-08T04:29:59.196Z,1.10
2019-03-08T04:30:36.694Z,1.45
2019-03-08T04:31:14.229Z,1.50
2019-03-08T04:31:52.262Z,1.40
2019-03-08T04:32:29.703Z,1.55
2019-03-08T04:33:07.627Z,1.02
2019-03-08T04:33:45.324Z,1.50
2019-03-08T04:34:23.308Z,1.32
2019-03-08T04:35:00.988Z,1.20
2019-03-08T04:35:38.720Z,1.60
2019-03-08T04:36:16.524Z,1.15
2019-03-08T04:36:54.544Z,1.75
2019-03-08T04:37:32.220Z,1.30
2019-03-08T04:38:09.898Z,1.40
2019-03-08T04:38:48.063Z,1.80
2019-03-08T04:39:26.131Z,1.57
2019-03-08T04:40:03.898Z,1.90
2019-03-08T04:40:41.550Z,1.37
2019-03-08T04:41:19.260Z,1.70
2019-03-08T04:42:15.842Z,1.70
2019-03-08T04:42:53.561Z,1.92
2019-03-08T04:43:30.628Z,1.70
2019-03-08T04:44:08.098Z,1.37
2019-03-08T04:44:45.484Z,1.40
2019-03-08T04:45:23.362Z,1.85
2019-03-08T04:46:01.048Z,1.67
2019-03-08T04:46:38.536Z,1.52
2019-03-08T04:47:15.666Z,1.27
2019-03-08T04:47:53.492Z,1.77
2019-03-08T04:48:31.216Z,1.62
2019-03-08T04:49:08.964Z,1.77
2019-03-08T04:49:46.474Z,1.65
2019-03-08T04:50:24.392Z,1.65
2019-03-08T04:51:02.460Z,1.67
2019-03-08T04:51:39.498Z,2.10
2019-03-08T04:52:17.140Z,1.27
2019-03-08T04:52:54.564Z,1.70
2019-03-08T04:53:32.362Z,1.47
2019-03-08T04:54:10.035Z,1.65
2019-03-08T04:54:48.140Z,1.50
2019-03-08T04:55:25.600Z,1.98
2019-03-08T04:56:03.300Z,1.50
2019-03-08T04:56:41.004Z,1.80
2019-03-08T04:57:18.764Z,1.30
2019-03-08T04:57:56.698Z,1.80
2019-03-08T04:58:34.155Z,1.30
2019-03-08T04:59:12.060Z,1.65
2019-03-08T04:59:49.590Z,1.50
2019-03-08T05:00:27.732Z,1.92
2019-03-08T05:01:24.305Z,1.50
2019-03-08T05:02:01.874Z,2.15
2019-03-08T05:02:39.720Z,1.80
2019-03-08T05:03:17.788Z,1.40
2019-03-08T05:03:55.900Z,1.50
2019-03-08T05:04:33.991Z,1.65
2019-03-08T05:05:11.846Z,1.35
2019-03-08T05:05:49.826Z,1.50
2019-03-08T05:06:27.989Z,1.55
2019-03-08T05:07:06.148Z,1.75
2019-03-08T05:07:44.046Z,1.70
2019-03-08T05:08:21.888Z,1.70
2019-03-08T05:08:59.356Z,1.40
2019-03-08T05:09:36.850Z,1.65
2019-03-08T05:10:15.488Z,1.50
2019-03-08T05:10:53.364Z,1.80
2019-03-08T05:11:31.376Z,1.50
2019-03-08T05:12:09.034Z,1.87
2019-03-08T05:12:46.492Z,1.65
2019-03-08T05:13:24.268Z,1.90
2019-03-08T05:14:02.074Z,1.60
2019-03-08T05:14:39.181Z,1.62
2019-03-08T05:15:18.050Z,1.70
2019-03-08T05:15:55.616Z,1.55
2019-03-08T05:16:32.936Z,2.08
2019-03-08T05:17:10.994Z,1.80
2019-03-08T05:17:48.468Z,1.40
2019-03-08T05:18:26.825Z,1.70
2019-03-08T05:19:04.568Z,1.50
2019-03-08T05:19:42.572Z,1.90
2019-03-08T05:20:20.506Z,1.90
2019-03-08T05:20:58.323Z,1.40
2019-03-08T05:21:35.810Z,1.67
2019-03-08T05:22:14.030Z,2.22
2019-03-08T05:22:52.001Z,1.60
2019-03-08T05:23:29.770Z,1.52
2019-03-08T05:24:07.248Z,2.37
2019-03-08T05:24:45.066Z,1.60
2019-03-08T05:25:22.822Z,1.80
2019-03-08T05:26:00.309Z,1.77
2019-03-08T05:26:37.780Z,1.92
2019-03-08T05:27:15.876Z,1.67
2019-03-08T05:27:52.942Z,1.70
2019-03-08T05:28:30.800Z,1.90
2019-03-08T05:29:08.512Z,1.50
2019-03-08T05:29:45.300Z,2.10
2019-03-08T05:30:22.862Z,1.70
2019-03-08T05:31:00.571Z,1.70
2019-03-08T05:31:38.017Z,2.02
2019-03-08T05:32:15.446Z,2.05
2019-03-08T05:32:53.193Z,1.70
2019-03-08T05:33:30.863Z,1.80
2019-03-08T05:34:08.825Z,1.85
2019-03-08T05:34:46.565Z,2.12
2019-03-08T05:35:24.020Z,1.55
2019-03-08T05:36:01.989Z,1.60
2019-03-08T05:36:39.728Z,1.90
2019-03-08T05:37:17.462Z,2.08
2019-03-08T05:37:55.273Z,2.05
2019-03-08T05:38:33.280Z,1.70
2019-03-08T05:39:13.932Z,1.80
2019-03-08T05:39:51.941Z,1.75
2019-03-08T05:40:31.217Z,2.05
2019-03-08T05:41:08.912Z,2.80
2019-03-08T05:41:46.696Z,1.92
2019-03-08T05:42:24.093Z,2.65
2019-03-08T05:43:01.786Z,1.98
2019-03-08T05:43:38.846Z,1.98
2019-03-08T05:44:17.252Z,2.10
2019-03-08T05:44:55.236Z,2.15
2019-03-08T05:45:33.001Z,1.85
2019-03-08T05:46:10.714Z,1.80
2019-03-08T05:46:47.849Z,1.80
2019-03-08T05:47:26.014Z,1.90
2019-03-08T05:48:03.795Z,2.08
2019-03-08T05:48:41.313Z,1.72
2019-03-08T05:49:19.033Z,1.95
2019-03-08T05:49:56.678Z,2.05
2019-03-08T05:50:34.689Z,2.98
2019-03-08T05:51:12.388Z,2.15
2019-03-08T05:51:49.857Z,1.80
2019-03-08T05:52:27.316Z,1.87
2019-03-08T05:53:05.192Z,2.10
2019-03-08T05:53:42.941Z,1.92
2019-03-08T05:54:21.209Z,1.95
2019-03-08T05:54:59.269Z,2.30
2019-03-08T05:55:37.059Z,2.20
2019-03-08T05:56:15.069Z,2.12
2019-03-08T05:56:54.374Z,2.40
2019-03-08T05:57:32.271Z,2.25
2019-03-08T05:58:10.298Z,2.30
2019-03-08T05:58:48.491Z,2.37
2019-03-08T05:59:26.634Z,2.62
2019-03-08T06:00:04.849Z,2.27
2019-03-08T06:00:42.853Z,1.90
2019-03-08T06:01:20.309Z,2.60
2019-03-08T06:01:57.680Z,1.77
2019-03-08T06:02:34.761Z,2.72
2019-03-08T06:03:12.512Z,2.42
2019-03-08T06:03:50.649Z,2.20
2019-03-08T06:04:28.105Z,2.05
2019-03-08T06:05:06.113Z,2.27
2019-03-08T06:05:44.271Z,2.22
2019-03-08T06:06:22.432Z,2.20
2019-03-08T06:07:00.221Z,2.30
2019-03-08T06:07:37.955Z,2.12
2019-03-08T06:08:15.672Z,2.10
2019-03-08T06:08:53.612Z,2.00
2019-03-08T06:09:31.113Z,2.05
2019-03-08T06:10:32.067Z,2.70
2019-03-08T06:11:09.831Z,2.40
2019-03-08T06:11:47.532Z,2.95
2019-03-08T06:12:25.220Z,2.20
2019-03-08T06:13:02.881Z,2.98
2019-03-08T06:13:40.352Z,2.42
2019-03-08T06:14:17.833Z,2.75
2019-03-08T06:14:56.054Z,2.15
2019-03-08T06:15:34.026Z,2.37
2019-03-08T06:16:11.907Z,1.70
2019-03-08T06:16:49.896Z,2.65
2019-03-08T06:17:27.888Z,1.95
2019-03-08T06:18:05.479Z,2.35
2019-03-08T06:18:42.959Z,2.65
2019-03-08T06:19:21.165Z,2.42
2019-03-08T06:19:58.521Z,2.55
2019-03-08T06:20:35.696Z,2.10
2019-03-08T06:21:12.453Z,2.35
2019-03-08T06:21:50.833Z,2.15
2019-03-08T06:22:28.260Z,2.27
2019-03-08T06:23:06.373Z,2.30
2019-03-08T06:23:43.813Z,2.40
2019-03-08T06:24:21.331Z,2.35
2019-03-08T06:24:59.271Z,2.70
2019-03-08T06:25:36.674Z,2.30
2019-03-08T06:26:14.583Z,2.60
2019-03-08T06:26:52.353Z,2.50
2019-03-08T06:27:30.333Z,1.90
2019-03-08T06:28:08.134Z,2.30
2019-03-08T06:28:46.113Z,2.50
2019-03-08T06:29:23.792Z,2.10
2019-03-08T06:30:00.871Z,2.30
2019-03-08T06:30:38.341Z,2.25
2019-03-08T06:31:16.101Z,2.70
2019-03-08T06:31:53.631Z,2.10
2019-03-08T06:32:31.561Z,2.27
2019-03-08T06:33:09.377Z,2.00
2019-03-08T06:33:47.075Z,2.20
2019-03-08T06:34:25.011Z,2.27
2019-03-08T06:35:02.845Z,2.10
2019-03-08T06:35:40.525Z,2.08
2019-03-08T06:36:17.925Z,2.20
2019-03-08T06:36:55.597Z,2.40
2019-03-08T06:37:36.094Z,2.47
2019-03-08T06:38:14.165Z,1.80
2019-03-08T06:38:51.998Z,1.80
2019-03-08T06:39:30.011Z,1.95
2019-03-08T06:40:08.319Z,1.95
2019-03-08T06:40:46.099Z,2.00
2019-03-08T06:41:23.577Z,2.08
2019-03-08T06:42:01.539Z,2.25
2019-03-08T06:42:40.035Z,2.08
2019-03-08T06:43:17.549Z,1.98
2019-03-08T06:43:55.006Z,2.30
2019-03-08T06:44:33.249Z,1.95
2019-03-08T06:45:12.902Z,1.52
2019-03-08T06:45:50.825Z,1.90
2019-03-08T06:46:28.692Z,2.17
2019-03-08T06:47:06.921Z,1.70
2019-03-08T06:47:45.223Z,1.80
2019-03-08T06:48:22.882Z,1.90
2019-03-08T06:49:00.888Z,2.17
2019-03-08T06:49:38.270Z,1.80
2019-03-08T06:50:16.083Z,1.90
2019-03-08T06:50:53.860Z,1.80
2019-03-08T06:51:31.623Z,1.90
2019-03-08T06:52:09.629Z,2.15
2019-03-08T06:52:47.810Z,2.30
2019-03-08T06:53:25.625Z,1.90
2019-03-08T06:54:03.467Z,1.92
2019-03-08T06:54:41.187Z,2.10
2019-03-08T06:55:18.944Z,2.20
2019-03-08T06:55:57.219Z,2.37
2019-03-08T06:56:35.249Z,2.10
2019-03-08T06:57:12.683Z,2.55
2019-03-08T06:57:58.625Z,2.30
2019-03-08T06:58:50.190Z,1.80
2019-03-08T06:59:32.176Z,2.37
2019-03-08T07:00:32.544Z,1.92
2019-03-08T07:01:22.970Z,1.92
2019-03-08T07:02:00.077Z,1.98
2019-03-08T07:02:37.359Z,1.92
2019-03-08T07:03:15.021Z,2.20
2019-03-08T07:03:53.092Z,2.00
2019-03-08T07:04:31.125Z,1.70
2019-03-08T07:05:08.639Z,1.50
2019-03-08T07:05:46.392Z,1.80
2019-03-08T07:06:23.576Z,1.45
2019-03-08T07:07:01.514Z,1.60
2019-03-08T07:07:39.398Z,2.02
2019-03-08T07:08:16.876Z,1.50
2019-03-08T07:08:54.507Z,1.98
2019-03-08T07:09:31.946Z,1.72
2019-03-08T07:10:09.871Z,1.50
2019-03-08T07:10:47.358Z,1.40
2019-03-08T07:11:24.990Z,1.60
2019-03-08T07:12:02.997Z,1.80
2019-03-08T07:12:40.471Z,1.75
2019-03-08T07:13:17.865Z,1.62
2019-03-08T07:13:55.310Z,1.40
2019-03-08T07:14:33.411Z,2.20
2019-03-08T07:15:11.312Z,1.62
2019-03-08T07:15:48.773Z,2.05
2019-03-08T07:16:26.361Z,2.00
2019-03-08T07:17:03.430Z,1.92
2019-03-08T07:17:41.107Z,1.80
2019-03-08T07:18:18.693Z,1.77
2019-03-08T07:18:55.978Z,2.17
2019-03-08T07:19:40.563Z,2.00
2019-03-08T07:20:31.807Z,1.70
2019-03-08T07:21:27.222Z,1.82
2019-03-08T07:22:24.041Z,1.80
2019-03-08T07:23:29.383Z,2.10
2019-03-08T07:24:12.370Z,1.80
2019-03-08T07:25:05.831Z,1.70
2019-03-08T07:26:01.139Z,1.98
2019-03-08T07:27:05.631Z,1.80
2019-03-08T07:28:08.937Z,1.67
2019-03-08T07:29:04.432Z,1.60
2019-03-08T07:30:03.416Z,1.40
2019-03-08T07:30:57.650Z,1.65
2019-03-08T07:31:54.812Z,1.70
2019-03-08T07:32:37.636Z,1.60
2019-03-08T07:33:33.227Z,3.40
2019-03-08T07:34:32.379Z,2.37
2019-03-08T07:35:24.738Z,1.90
2019-03-08T07:36:19.756Z,1.95
2019-03-08T07:37:34.244Z,1.60
2019-03-08T07:38:29.283Z,1.70
2019-03-08T07:39:20.463Z,1.47
2019-03-08T07:40:15.843Z,1.40
2019-03-08T07:41:03.707Z,1.60
2019-03-08T07:41:46.805Z,1.77
2019-03-08T07:42:52.667Z,1.50
2019-03-08T07:43:47.427Z,1.62
2019-03-08T07:44:32.283Z,1.77
2019-03-08T07:45:27.480Z,2.00
2019-03-08T07:46:13.443Z,1.65
2019-03-08T07:47:08.858Z,1.52
2019-03-08T07:48:05.379Z,1.50
2019-03-08T07:48:54.641Z,1.70
2019-03-08T07:50:13.174Z,1.55
2019-03-08T07:51:12.507Z,1.30
2019-03-08T07:52:03.443Z,1.32
2019-03-08T07:52:55.981Z,1.27
2019-03-08T07:53:44.026Z,1.10
2019-03-08T07:54:52.907Z,1.20
2019-03-08T07:55:56.345Z,1.02
2019-03-08T07:56:46.273Z,1.02
2019-03-08T07:57:52.040Z,1.10
2019-03-08T07:59:00.988Z,1.30
2019-03-08T07:59:53.970Z,1.07
2019-03-08T08:00:44.602Z,0.90
2019-03-08T08:01:30.136Z,1.20
2019-03-08T08:02:23.603Z,0.93
2019-03-08T08:03:19.208Z,0.88
2019-03-08T08:04:28.102Z,1.05
2019-03-08T08:05:15.535Z,0.98
2019-03-08T08:06:02.455Z,1.02
2019-03-08T08:06:46.082Z,0.88
2019-03-08T08:07:40.541Z,1.10
2019-03-08T08:08:36.463Z,1.10
2019-03-08T08:09:45.466Z,0.80
2019-03-08T08:10:49.485Z,0.90
2019-03-08T08:11:43.243Z,1.20
2019-03-08T08:12:27.696Z,0.90
2019-03-08T08:13:22.248Z,0.88
2019-03-08T08:14:27.280Z,1.00
2019-03-08T08:15:35.956Z,0.93
2019-03-08T08:16:22.350Z,0.85
2019-03-08T08:17:15.206Z,0.80
2019-03-08T08:17:59.961Z,0.80
2019-03-08T08:18:47.763Z,0.95
2019-03-08T08:19:45.330Z,1.00
2019-03-08T08:20:57.522Z,1.00
2019-03-08T08:22:03.266Z,0.95
2019-03-08T08:22:51.392Z,0.80
2019-03-08T08:23:46.415Z,0.90
2019-03-08T08:24:43.012Z,0.80
2019-03-08T08:25:39.137Z,1.00
2019-03-08T08:27:00.430Z,1.00
2019-03-08T08:27:55.006Z,0.80
2019-03-08T08:28:38.002Z,0.90
2019-03-08T08:29:35.220Z,0.90
2019-03-08T08:30:31.273Z,0.88
2019-03-08T08:31:22.716Z,1.02
2019-03-08T08:32:22.785Z,0.80
2019-03-08T08:33:18.013Z,0.90
2019-03-08T08:34:11.430Z,1.37
2019-03-08T08:35:01.411Z,1.15
2019-03-08T08:35:58.102Z,0.90
2019-03-08T08:37:12.706Z,0.85
2019-03-08T08:38:08.874Z,1.00
2019-03-08T08:39:17.520Z,1.10
2019-03-08T08:40:14.141Z,1.10
2019-03-08T08:41:09.174Z,1.10
2019-03-08T08:41:56.647Z,1.00
2019-03-08T08:42:56.423Z,1.20
2019-03-08T08:43:59.006Z,1.05
2019-03-08T08:44:53.128Z,0.98
2019-03-08T08:45:50.720Z,0.88
2019-03-08T08:46:40.088Z,1.00
2019-03-08T08:47:30.568Z,1.00
2019-03-08T08:48:23.511Z,1.10
2019-03-08T08:49:18.602Z,1.00
2019-03-08T08:50:08.752Z,1.00
2019-03-08T08:51:00.383Z,0.85
2019-03-08T08:51:55.159Z,1.00
2019-03-08T08:52:50.763Z,0.90
2019-03-08T08:53:56.928Z,0.88
2019-03-08T08:54:41.356Z,0.90
2019-03-08T08:55:24.982Z,1.05
2019-03-08T08:56:22.940Z,0.70
2019-03-08T08:57:08.622Z,0.70
2019-03-08T08:57:57.059Z,0.90
2019-03-08T08:59:02.461Z,0.80